Flugmeteorologie

  • METAR LHSM 161545Z 16005KT CAVOK 10/02 Q1030=
  • METAR LHSM 161515Z 16004KT CAVOK 12/02 Q1030=
  • METAR LHSM 161445Z 18002KT CAVOK 13/01 Q1030 NOSIG=
  • METAR LHSM 161415Z 16001KT CAVOK 13/01 Q1030 NOSIG=
  • METAR LHSM 161345Z 19002KT CAVOK 13/01 Q1030 NOSIG=

  • TAF LHSM 161115Z 1612/1621 17004KT CAVOK
  • TAF LHSM 160815Z 1609/1618 VRB02KT 5000 BR NSC
  • TAF LHSM 160515Z 1606/1615 VRB02KT 0150 FZFG NSC
  • TAF LHSM 151115Z 1512/1521 33005KT 9999 BKN040
  • TAF LHSM 150815Z 1509/1518 33005KT 9999 BKN036